createdAt,value
2018-08-30T00:02:51.732Z,18.20
2018-08-30T00:03:24.778Z,18.70
2018-08-30T00:03:58.576Z,17.10
2018-08-30T00:47:01.740Z,17.23
2018-08-30T00:47:34.788Z,19.27
2018-08-30T00:48:07.825Z,16.62
2018-08-30T01:33:20.102Z,6.07
2018-08-30T01:33:53.134Z,6.40
2018-08-30T01:34:26.247Z,6.87
2018-08-30T01:34:59.449Z,6.40
2018-08-30T04:24:18.174Z,5.95
2018-08-30T04:24:51.959Z,6.10
2018-08-30T04:25:25.763Z,6.80
2018-08-30T04:25:59.550Z,7.87
2018-08-30T04:26:33.342Z,6.90
2018-08-30T04:27:07.218Z,7.80
2018-08-30T04:27:40.348Z,7.32
2018-08-30T04:28:13.388Z,6.62
2018-08-30T04:28:46.399Z,6.55
2018-08-30T04:29:19.433Z,7.60
2018-08-30T04:29:53.231Z,8.18
2018-08-30T04:30:26.281Z,8.18
2018-08-30T04:30:59.326Z,8.27
2018-08-30T04:31:32.426Z,7.37
2018-08-30T04:32:05.417Z,7.80
2018-08-30T04:32:38.452Z,5.87
2018-08-30T04:33:11.480Z,7.60
2018-08-30T04:33:44.537Z,6.37
2018-08-30T04:34:17.576Z,7.40
2018-08-30T04:34:50.595Z,7.60
2018-08-30T04:35:24.395Z,5.72
2018-08-30T04:35:57.431Z,7.70
2018-08-30T04:36:30.473Z,7.45
2018-08-30T04:37:03.505Z,7.65
2018-08-30T04:37:37.332Z,8.18
2018-08-30T04:38:10.719Z,7.15
2018-08-30T04:38:43.996Z,7.55
2018-08-30T04:39:17.277Z,8.32
2018-08-30T04:39:50.320Z,7.85
2018-08-30T04:40:24.119Z,7.22
2018-08-30T04:40:57.157Z,11.93
2018-08-30T04:41:30.188Z,7.95
2018-08-30T04:42:03.220Z,6.78
2018-08-30T04:42:36.264Z,7.30
2018-08-30T04:43:09.267Z,9.13
2018-08-30T04:43:42.317Z,8.90
2018-08-30T04:44:15.339Z,8.30
2018-08-30T04:44:48.379Z,10.02
2018-08-30T04:45:21.412Z,8.85
2018-08-30T04:45:54.435Z,7.97
2018-08-30T04:46:27.456Z,7.90
2018-08-30T04:47:00.500Z,7.80
2018-08-30T04:47:34.303Z,7.72
2018-08-30T04:48:08.105Z,7.15
2018-08-30T04:48:41.140Z,9.65
2018-08-30T04:49:14.172Z,7.53
2018-08-30T04:49:47.220Z,8.48
2018-08-30T04:50:21.049Z,8.43
2018-08-30T04:50:54.051Z,7.70
2018-08-30T04:51:27.091Z,9.18
2018-08-30T04:52:00.130Z,7.85
2018-08-30T04:52:33.932Z,10.10
2018-08-30T04:53:06.956Z,8.18
2018-08-30T04:53:39.992Z,9.55
2018-08-30T04:54:13.026Z,8.55
2018-08-30T04:54:46.063Z,9.65
2018-08-30T04:55:19.089Z,9.95
2018-08-30T04:55:52.119Z,9.25
2018-08-30T04:56:25.170Z,8.88
2018-08-30T04:56:58.464Z,7.25
2018-08-30T04:57:31.477Z,8.77
2018-08-30T04:58:04.503Z,9.07
2018-08-30T04:58:37.703Z,8.20
2018-08-30T04:59:10.725Z,9.05
2018-08-30T04:59:43.751Z,8.32
2018-08-30T05:00:16.790Z,8.07
2018-08-30T05:00:50.575Z,9.80
2018-08-30T05:01:24.382Z,8.55
2018-08-30T05:01:57.411Z,8.23
2018-08-30T05:02:30.449Z,7.57
2018-08-30T05:03:03.520Z,8.90
2018-08-30T05:03:36.536Z,9.20
2018-08-30T05:04:09.584Z,9.35
2018-08-30T05:04:42.615Z,9.02
2018-08-30T05:05:15.660Z,9.73
2018-08-30T05:05:48.692Z,7.87
2018-08-30T05:06:21.733Z,8.65
2018-08-30T05:06:55.540Z,10.18
2018-08-30T05:07:28.583Z,8.55
2018-08-30T05:08:01.625Z,8.52
2018-08-30T05:08:34.663Z,8.13
2018-08-30T05:09:07.711Z,8.25
2018-08-30T05:09:40.742Z,7.78
2018-08-30T05:10:13.777Z,8.68
2018-08-30T05:10:47.576Z,8.90
2018-08-30T05:11:20.600Z,8.02
2018-08-30T05:11:53.960Z,7.53
2018-08-30T05:12:26.980Z,9.70
2018-08-30T05:13:00.028Z,9.35
2018-08-30T05:13:33.055Z,8.75
2018-08-30T05:14:06.095Z,7.18
2018-08-30T05:14:39.126Z,7.80
2018-08-30T05:15:12.152Z,7.45
2018-08-30T05:15:45.188Z,8.70
2018-08-30T05:16:18.246Z,9.35
2018-08-30T05:16:51.279Z,9.50
2018-08-30T05:17:24.312Z,9.52
2018-08-30T05:17:57.339Z,8.18
2018-08-30T05:18:30.387Z,8.43
2018-08-30T05:19:03.432Z,10.10
2018-08-30T05:19:36.612Z,8.10
2018-08-30T05:20:09.624Z,8.98
2018-08-30T05:20:42.655Z,9.13
2018-08-30T05:21:15.692Z,7.47
2018-08-30T05:21:49.490Z,8.50
2018-08-30T05:22:23.286Z,8.38
2018-08-30T05:22:56.320Z,7.35
2018-08-30T05:23:30.244Z,8.13
2018-08-30T05:24:04.085Z,9.63
2018-08-30T05:24:37.108Z,8.27
2018-08-30T05:25:10.136Z,8.20
2018-08-30T05:25:43.161Z,9.05
2018-08-30T05:26:16.956Z,9.68
2018-08-30T05:26:50.754Z,10.15
2018-08-30T05:27:23.794Z,10.05
2018-08-30T05:27:56.834Z,10.07
2018-08-30T05:28:29.869Z,8.27
2018-08-30T05:29:03.672Z,8.25
2018-08-30T05:29:36.710Z,8.48
2018-08-30T05:30:09.736Z,8.27
2018-08-30T05:30:42.766Z,8.85
2018-08-30T05:31:15.799Z,8.73
2018-08-30T05:31:48.828Z,8.63
2018-08-30T05:32:21.855Z,8.63
2018-08-30T05:32:54.884Z,8.13
2018-08-30T05:33:28.677Z,9.18
2018-08-30T05:34:02.480Z,8.77
2018-08-30T05:34:35.527Z,10.27
2018-08-30T05:35:08.572Z,8.93
2018-08-30T05:35:41.669Z,8.00
2018-08-30T05:36:14.621Z,8.35
2018-08-30T05:36:47.668Z,9.27
2018-08-30T05:37:20.696Z,7.85
2018-08-30T05:37:53.720Z,8.68
2018-08-30T05:38:26.743Z,9.45
2018-08-30T05:38:59.777Z,8.75
2018-08-30T05:39:32.828Z,7.50
2018-08-30T05:40:05.862Z,8.32
2018-08-30T05:40:39.008Z,9.18
2018-08-30T05:41:12.043Z,10.00
2018-08-30T05:41:45.064Z,9.80
2018-08-30T05:42:18.103Z,9.05
2018-08-30T05:42:51.120Z,8.52
2018-08-30T05:43:24.148Z,9.73
2018-08-30T05:43:57.246Z,10.55
2018-08-30T05:44:30.331Z,10.23
2018-08-30T05:45:03.347Z,10.98
2018-08-30T05:45:37.160Z,10.60
2018-08-30T05:46:10.201Z,11.52
2018-08-30T05:46:43.260Z,21.62
2018-08-30T05:47:16.283Z,9.68
2018-08-30T05:47:50.088Z,10.27
2018-08-30T05:48:23.128Z,12.82
2018-08-30T05:48:56.172Z,11.90
2018-08-30T05:49:29.203Z,10.95
2018-08-30T05:50:02.239Z,11.23
2018-08-30T05:50:35.289Z,10.05
2018-08-30T05:51:08.336Z,10.98
2018-08-30T05:51:41.367Z,12.55
2018-08-30T05:52:14.408Z,11.50
2018-08-30T05:52:47.451Z,10.77
2018-08-30T05:53:20.500Z,11.63
2018-08-30T05:53:53.531Z,11.82
2018-08-30T05:54:26.575Z,11.77
2018-08-30T05:54:59.608Z,14.98
2018-08-30T05:55:32.660Z,12.93
2018-08-30T05:56:05.692Z,12.43
2018-08-30T05:56:39.488Z,10.98
2018-08-30T05:57:13.291Z,12.37
2018-08-30T05:57:46.333Z,13.07
2018-08-30T05:58:19.359Z,12.52
2018-08-30T05:58:52.395Z,13.57
2018-08-30T05:59:26.210Z,12.50
2018-08-30T05:59:59.243Z,13.02
2018-08-30T06:00:32.280Z,11.65
2018-08-30T06:01:05.314Z,14.52
2018-08-30T06:01:39.120Z,11.52
2018-08-30T06:02:12.146Z,12.93
2018-08-30T06:02:45.195Z,13.85
2018-08-30T06:03:18.232Z,12.57
2018-08-30T06:03:52.027Z,13.20
2018-08-30T06:04:25.850Z,12.63
2018-08-30T06:04:59.656Z,12.02
2018-08-30T06:05:32.689Z,11.40
2018-08-30T06:06:05.728Z,13.70
2018-08-30T06:06:38.774Z,12.60
2018-08-30T06:07:11.822Z,11.98
2018-08-30T06:07:44.856Z,12.80
2018-08-30T06:08:17.953Z,11.85
2018-08-30T06:08:50.920Z,14.43
2018-08-30T06:09:23.987Z,13.00
2018-08-30T06:09:57.029Z,12.82
2018-08-30T06:10:30.077Z,13.62
2018-08-30T06:11:03.878Z,13.70
2018-08-30T06:11:36.916Z,11.40
2018-08-30T06:12:10.714Z,13.20
2018-08-30T06:12:44.513Z,13.52
2018-08-30T06:13:18.313Z,13.57
2018-08-30T06:13:51.369Z,13.82
2018-08-30T06:14:24.401Z,11.68
2018-08-30T06:14:58.215Z,13.35
2018-08-30T06:15:31.247Z,13.88
2018-08-30T06:16:04.296Z,13.10
2018-08-30T06:16:38.099Z,13.65
2018-08-30T06:17:11.144Z,12.82
2018-08-30T06:17:44.953Z,14.13
2018-08-30T06:18:18.756Z,13.65
2018-08-30T06:18:52.552Z,14.70
2018-08-30T06:19:25.601Z,12.93
2018-08-30T06:19:58.640Z,13.38
2018-08-30T06:20:32.827Z,16.02
2018-08-30T06:21:05.831Z,15.68
2018-08-30T06:21:39.164Z,12.93
2018-08-30T06:22:12.460Z,15.77
2018-08-30T06:22:45.509Z,13.95
2018-08-30T06:23:18.548Z,17.67
2018-08-30T06:23:51.595Z,14.20
2018-08-30T06:24:24.756Z,14.23
2018-08-30T06:24:57.796Z,13.40
2018-08-30T06:25:30.844Z,13.82
2018-08-30T06:26:03.896Z,14.63
2018-08-30T06:26:36.973Z,16.37
2018-08-30T06:27:10.030Z,16.30
2018-08-30T06:27:43.074Z,15.80
2018-08-30T06:28:16.119Z,15.95
2018-08-30T06:28:49.157Z,15.00
2018-08-30T06:29:22.396Z,15.63
2018-08-30T06:29:55.400Z,13.23
2018-08-30T06:30:28.440Z,16.70
2018-08-30T06:31:02.245Z,13.85
2018-08-30T06:31:36.075Z,15.98
2018-08-30T06:32:09.107Z,19.95
2018-08-30T06:32:42.191Z,14.85
2018-08-30T06:33:15.181Z,16.35
2018-08-30T06:33:48.512Z,15.88
2018-08-30T06:34:21.565Z,16.85
2018-08-30T06:34:54.620Z,13.57
2018-08-30T06:35:27.654Z,18.02
2018-08-30T06:36:00.697Z,15.20
2018-08-30T06:36:33.731Z,16.27
2018-08-30T06:37:06.981Z,17.77
2018-08-30T06:37:40.784Z,16.42
2018-08-30T06:38:14.595Z,16.08
2018-08-30T06:38:47.677Z,16.75
2018-08-30T06:39:20.667Z,15.77
2018-08-30T06:39:53.715Z,17.95
2018-08-30T06:40:26.768Z,18.50
2018-08-30T06:40:59.804Z,16.30
2018-08-30T06:41:32.864Z,19.12
2018-08-30T06:42:05.889Z,17.33
2018-08-30T06:42:38.931Z,14.25
2018-08-30T06:43:11.984Z,17.87
2018-08-30T06:43:45.042Z,15.68
2018-08-30T06:44:18.079Z,15.63
2018-08-30T06:44:51.121Z,15.70
2018-08-30T06:45:24.168Z,13.18
2018-08-30T06:45:57.424Z,18.73
2018-08-30T06:46:31.223Z,19.33
2018-08-30T06:47:05.032Z,16.60
2018-08-30T06:47:38.064Z,17.70
2018-08-30T06:48:11.874Z,19.15
2018-08-30T06:48:44.987Z,19.67
2018-08-30T06:49:17.960Z,23.83
2018-08-30T06:49:51.022Z,18.12
2018-08-30T06:50:24.051Z,18.85
2018-08-30T06:50:57.080Z,16.70
2018-08-30T06:51:30.124Z,16.73
2018-08-30T06:52:03.928Z,18.37
2018-08-30T06:52:37.232Z,20.90
2018-08-30T06:53:10.264Z,17.73
2018-08-30T06:53:44.055Z,18.70
2018-08-30T06:54:17.884Z,17.77
2018-08-30T06:54:50.936Z,17.35
2018-08-30T06:55:24.744Z,17.98
2018-08-30T06:55:57.776Z,18.08
2018-08-30T06:56:30.909Z,17.65
2018-08-30T06:57:03.849Z,18.60
2018-08-30T06:57:37.668Z,17.42
2018-08-30T06:58:10.696Z,18.05
2018-08-30T06:58:43.740Z,21.08
2018-08-30T06:59:16.784Z,16.52
2018-08-30T06:59:49.844Z,18.65
2018-08-30T07:00:22.895Z,18.00
2018-08-30T07:00:56.144Z,17.10
2018-08-30T07:01:29.315Z,19.65
2018-08-30T07:02:02.361Z,18.48
2018-08-30T07:02:35.395Z,19.15
2018-08-30T07:03:08.460Z,19.35
2018-08-30T07:03:41.483Z,20.48
2018-08-30T07:04:14.607Z,18.67
2018-08-30T07:04:47.804Z,16.83
2018-08-30T07:05:20.860Z,18.90
2018-08-30T07:05:53.891Z,17.15
2018-08-30T07:06:26.928Z,16.48
2018-08-30T07:06:59.959Z,18.55
2018-08-30T07:07:33.011Z,16.20
2018-08-30T07:08:07.205Z,19.05
2018-08-30T07:08:40.181Z,17.87
2018-08-30T07:09:13.987Z,17.37
2018-08-30T07:09:47.032Z,17.92
2018-08-30T07:10:20.088Z,18.23
2018-08-30T07:10:53.121Z,16.50
2018-08-30T07:11:26.156Z,18.10
2018-08-30T07:11:59.964Z,18.25
2018-08-30T07:12:33.015Z,19.70
2018-08-30T07:13:06.054Z,19.05
2018-08-30T07:13:39.096Z,21.20
2018-08-30T07:14:12.344Z,17.70
2018-08-30T07:14:45.409Z,18.00
2018-08-30T07:15:18.447Z,19.00
2018-08-30T07:15:51.517Z,18.48
2018-08-30T07:16:24.561Z,18.70
2018-08-30T07:16:58.373Z,17.58
2018-08-30T07:17:31.399Z,16.87
2018-08-30T07:18:04.441Z,17.50
2018-08-30T07:18:37.473Z,17.50
2018-08-30T07:19:10.515Z,17.92
2018-08-30T07:19:43.562Z,17.00
2018-08-30T07:20:16.627Z,19.60
2018-08-30T07:20:49.660Z,20.25
2018-08-30T07:21:22.696Z,17.77
2018-08-30T07:21:55.755Z,21.92
2018-08-30T07:22:28.800Z,18.77
2018-08-30T07:23:02.595Z,19.00
2018-08-30T07:23:36.406Z,20.00
2018-08-30T07:24:10.244Z,18.40
2018-08-30T07:24:43.236Z,20.73
2018-08-30T07:25:17.056Z,19.10
2018-08-30T07:25:50.097Z,18.00
2018-08-30T07:26:23.148Z,18.95
2018-08-30T07:26:56.195Z,20.02
2018-08-30T07:27:29.248Z,17.98
2018-08-30T07:28:02.277Z,16.98
2018-08-30T07:28:35.432Z,17.12
2018-08-30T07:29:08.385Z,17.83
2018-08-30T07:29:41.425Z,16.23
2018-08-30T07:30:14.493Z,16.95
2018-08-30T07:30:47.543Z,19.27
2018-08-30T07:31:20.601Z,17.67
2018-08-30T07:31:53.633Z,17.90
2018-08-30T07:32:27.440Z,17.70
2018-08-30T07:33:01.236Z,18.25
2018-08-30T07:33:34.281Z,15.88
2018-08-30T07:34:07.430Z,18.65
2018-08-30T07:34:40.951Z,17.58
2018-08-30T07:35:14.076Z,18.12
2018-08-30T07:35:47.028Z,20.42
2018-08-30T07:36:20.065Z,16.58
2018-08-30T07:36:53.112Z,18.15
2018-08-30T07:37:26.144Z,15.68
2018-08-30T07:37:59.187Z,19.27
2018-08-30T07:38:32.219Z,20.15
2018-08-30T07:39:05.413Z,19.95
2018-08-30T07:39:38.463Z,20.65
2018-08-30T07:40:11.569Z,17.95
2018-08-30T07:40:44.603Z,18.90
2018-08-30T07:41:18.425Z,17.90
2018-08-30T07:41:51.447Z,17.40
2018-08-30T07:42:24.475Z,20.12
2018-08-30T07:42:57.531Z,16.70
2018-08-30T07:43:30.564Z,17.20
2018-08-30T07:44:03.677Z,18.35
2018-08-30T07:44:36.712Z,17.45
2018-08-30T07:45:09.719Z,17.23
2018-08-30T07:45:42.771Z,21.80
2018-08-30T07:46:15.825Z,18.27
2018-08-30T07:46:48.873Z,17.10
2018-08-30T07:47:22.012Z,19.25
2018-08-30T07:47:54.939Z,18.02
2018-08-30T07:48:28.002Z,17.55
2018-08-30T07:49:01.039Z,16.87
2018-08-30T07:49:34.079Z,16.25
2018-08-30T07:50:07.115Z,18.00
2018-08-30T07:50:40.164Z,17.52
2018-08-30T07:51:13.201Z,16.55
2018-08-30T07:51:46.268Z,16.12
2018-08-30T07:52:19.324Z,17.62
2018-08-30T07:52:52.357Z,16.60
2018-08-30T07:53:26.171Z,17.42
2018-08-30T07:53:59.211Z,16.98
2018-08-30T07:54:32.304Z,17.17
2018-08-30T07:55:06.322Z,16.90
2018-08-30T07:55:39.376Z,19.55
2018-08-30T07:56:12.428Z,19.83
2018-08-30T07:56:45.468Z,18.42
2018-08-30T07:57:18.559Z,15.70
2018-08-30T07:57:51.555Z,17.55
2018-08-30T07:58:24.584Z,18.35
2018-08-30T07:58:57.640Z,17.90
2018-08-30T07:59:30.673Z,18.30
2018-08-30T08:00:03.774Z,18.60
2018-08-30T08:00:36.789Z,17.55
2018-08-30T08:01:10.597Z,19.05
2018-08-30T08:01:43.672Z,16.85
2018-08-30T08:02:16.705Z,17.27
2018-08-30T08:02:49.750Z,15.00
2018-08-30T08:03:23.551Z,19.40
2018-08-30T08:03:57.347Z,19.12
2018-08-30T08:04:31.150Z,17.02
2018-08-30T08:05:04.197Z,17.27
2018-08-30T08:05:37.264Z,16.75
2018-08-30T08:06:10.462Z,17.45
2018-08-30T08:06:43.352Z,16.02
2018-08-30T08:07:17.175Z,17.48
2018-08-30T08:07:50.182Z,17.37
2018-08-30T08:08:23.222Z,17.85
2018-08-30T08:08:56.393Z,16.50
2018-08-30T08:09:29.443Z,18.60
2018-08-30T08:10:02.484Z,16.92
2018-08-30T08:10:35.507Z,16.95
2018-08-30T08:11:08.577Z,15.77
2018-08-30T08:11:41.616Z,16.27
2018-08-30T08:12:15.429Z,15.93
2018-08-30T08:12:49.254Z,16.25
2018-08-30T08:13:22.265Z,16.20
2018-08-30T08:13:55.295Z,15.85
2018-08-30T08:14:28.340Z,18.42
2018-08-30T08:15:02.149Z,17.42
2018-08-30T08:15:35.187Z,17.37
2018-08-30T08:16:08.243Z,17.40
2018-08-30T08:16:41.295Z,19.10
2018-08-30T08:17:14.334Z,15.50
2018-08-30T08:17:48.152Z,15.88
2018-08-30T08:18:21.196Z,17.95
2018-08-30T08:18:55.048Z,20.65
2018-08-30T08:19:28.057Z,16.48
2018-08-30T08:20:01.098Z,14.98
2018-08-30T08:20:34.152Z,17.35
2018-08-30T08:21:07.201Z,17.60
2018-08-30T08:21:40.235Z,16.73
2018-08-30T08:22:13.275Z,18.40
2018-08-30T08:22:46.312Z,16.27
2018-08-30T08:23:19.472Z,17.85
2018-08-30T08:23:53.268Z,17.00
2018-08-30T08:24:26.346Z,16.67
2018-08-30T08:24:59.360Z,15.82
2018-08-30T08:25:32.554Z,16.60
2018-08-30T08:26:05.597Z,15.80
2018-08-30T08:26:38.636Z,17.25
2018-08-30T08:27:11.687Z,16.42
2018-08-30T08:27:44.724Z,18.52
2018-08-30T08:28:17.764Z,16.10
2018-08-30T08:28:50.807Z,15.17
2018-08-30T08:29:23.862Z,14.13
2018-08-30T08:29:56.905Z,16.65
2018-08-30T08:30:30.712Z,16.87
2018-08-30T08:32:09.532Z,18.90
2018-08-30T08:34:20.844Z,15.98
2018-08-30T08:34:53.894Z,14.02
2018-08-30T08:40:22.825Z,12.60
2018-08-30T08:40:55.864Z,15.25
2018-08-30T08:41:28.972Z,13.82
2018-08-30T08:42:02.050Z,14.85
2018-08-30T08:42:35.108Z,18.60
2018-08-30T08:43:08.144Z,13.85
2018-08-30T08:44:13.692Z,14.02
2018-08-30T08:44:46.747Z,13.98
2018-08-30T08:45:20.028Z,14.45
2018-08-30T08:45:53.084Z,12.50
2018-08-30T08:54:35.721Z,11.73
2018-08-30T08:55:08.860Z,13.90
2018-08-30T08:55:41.887Z,14.07
2018-08-30T08:56:47.491Z,13.50
2018-08-30T09:11:27.815Z,13.25
2018-08-30T09:13:05.992Z,13.50
2018-08-30T09:25:38.451Z,11.20
2018-08-30T09:26:12.260Z,12.50
2018-08-30T09:26:45.378Z,11.40
2018-08-30T09:32:44.207Z,12.10
2018-08-30T09:34:23.256Z,13.30
2018-08-30T09:35:30.340Z,10.50
2018-08-30T09:36:03.383Z,11.80
2018-08-30T09:37:41.471Z,12.30
2018-08-30T09:38:14.617Z,13.40
2018-08-30T09:38:47.676Z,14.20
2018-08-30T09:39:20.730Z,12.50
2018-08-30T09:42:05.367Z,11.30
2018-08-30T09:42:38.401Z,12.05
2018-08-30T09:43:11.572Z,12.20
2018-08-30T09:44:49.815Z,14.25
2018-08-30T09:45:56.121Z,11.90
2018-08-30T09:46:29.155Z,12.77
2018-08-30T09:47:02.234Z,10.98
2018-08-30T09:47:36.055Z,12.93
2018-08-30T09:53:03.519Z,12.25
2018-08-30T09:53:36.545Z,11.00
2018-08-30T09:54:09.571Z,12.25
2018-08-30T09:54:43.365Z,10.23
2018-08-30T09:55:17.179Z,13.05
2018-08-30T09:55:50.292Z,9.45
2018-08-30T09:56:24.023Z,9.75
2018-08-30T09:56:57.236Z,10.73
2018-08-30T09:57:30.222Z,9.60
2018-08-30T09:58:04.024Z,8.63
2018-08-30T09:58:37.053Z,11.27
2018-08-30T09:59:10.339Z,10.18
2018-08-30T09:59:43.386Z,9.50
2018-08-30T10:00:16.417Z,8.23
2018-08-30T10:00:49.448Z,12.57
2018-08-30T10:01:23.249Z,9.85
2018-08-30T10:01:56.371Z,9.93
2018-08-30T10:02:29.415Z,10.40
2018-08-30T10:03:02.497Z,9.13
2018-08-30T10:03:35.522Z,9.20
2018-08-30T10:04:08.944Z,9.25
2018-08-30T10:04:42.017Z,9.20
2018-08-30T10:05:15.022Z,10.32
2018-08-30T10:05:48.036Z,9.60
2018-08-30T10:06:21.071Z,9.77
2018-08-30T10:06:54.121Z,9.00
2018-08-30T10:07:27.196Z,10.10
2018-08-30T10:08:00.216Z,10.65
2018-08-30T10:08:34.028Z,11.02
2018-08-30T10:09:07.857Z,9.65
2018-08-30T10:09:40.900Z,11.18
2018-08-30T10:10:13.935Z,8.07
2018-08-30T10:10:46.972Z,9.27
2018-08-30T10:11:20.001Z,9.10
2018-08-30T10:11:53.039Z,9.35
2018-08-30T10:12:26.091Z,8.45
2018-08-30T10:12:59.123Z,9.68
2018-08-30T10:13:32.160Z,8.93
2018-08-30T10:14:05.215Z,9.80
2018-08-30T10:14:38.504Z,11.20
2018-08-30T10:15:11.539Z,12.23
2018-08-30T10:15:45.376Z,9.88
2018-08-30T10:16:19.124Z,10.43
2018-08-30T10:16:52.932Z,9.82
2018-08-30T10:17:26.974Z,8.95
2018-08-30T10:18:00.010Z,10.00
2018-08-30T10:18:33.051Z,9.05
2018-08-30T10:19:06.309Z,9.10
2018-08-30T10:19:39.339Z,10.05
2018-08-30T10:20:12.437Z,9.85
2018-08-30T10:20:45.480Z,10.23
2018-08-30T10:21:18.568Z,10.15
2018-08-30T10:21:51.569Z,11.23
2018-08-30T10:22:24.615Z,10.05
2018-08-30T10:22:57.644Z,11.35
2018-08-30T10:23:30.700Z,9.50
2018-08-30T10:24:03.958Z,10.60
2018-08-30T10:24:37.771Z,8.70
2018-08-30T10:25:10.823Z,8.60
2018-08-30T10:25:43.896Z,10.27
2018-08-30T10:26:16.890Z,10.52
2018-08-30T10:26:49.940Z,11.00
2018-08-30T10:27:22.980Z,8.88
2018-08-30T10:27:56.022Z,9.68
2018-08-30T10:28:29.048Z,8.50
2018-08-30T10:29:02.881Z,9.88
2018-08-30T10:29:35.896Z,9.85
2018-08-30T10:30:09.035Z,11.35
2018-08-30T10:30:42.068Z,10.77
2018-08-30T10:31:15.099Z,8.93
2018-08-30T10:31:48.116Z,8.70
2018-08-30T10:32:21.926Z,11.07
2018-08-30T10:32:54.959Z,10.10
2018-08-30T10:33:28.000Z,10.43
2018-08-30T10:34:01.115Z,10.40
2018-08-30T10:34:34.176Z,11.30
2018-08-30T10:36:12.217Z,9.70
2018-08-30T10:36:45.263Z,10.65
2018-08-30T10:37:50.850Z,11.10
2018-08-30T10:38:23.880Z,8.90
2018-08-30T10:38:56.908Z,9.57
2018-08-30T10:39:29.940Z,11.95
2018-08-30T10:52:29.271Z,11.68
2018-08-30T10:53:03.280Z,11.73
2018-08-30T10:53:44.858Z,10.07
2018-08-30T10:54:19.256Z,9.20
2018-08-30T10:54:52.413Z,10.52
2018-08-30T10:55:26.344Z,10.93
2018-08-30T10:57:39.850Z,10.33
2018-08-30T10:58:12.914Z,9.05
2018-08-30T10:58:46.159Z,10.50
2018-08-30T10:59:19.955Z,11.20
2018-08-30T10:59:53.027Z,10.10
2018-08-30T11:00:26.874Z,11.33
2018-08-30T11:00:59.975Z,10.70
2018-08-30T11:01:33.108Z,10.02
2018-08-30T11:02:06.184Z,9.48
2018-08-30T11:02:39.273Z,9.50
2018-08-30T11:03:12.447Z,10.05
2018-08-30T11:03:51.921Z,7.80
2018-08-30T11:04:25.839Z,8.27
2018-08-30T11:04:58.735Z,9.27
2018-08-30T11:05:32.630Z,9.10
2018-08-30T11:06:05.699Z,8.55
2018-08-30T11:06:38.725Z,9.95
2018-08-30T11:07:11.758Z,10.98
2018-08-30T11:07:44.800Z,8.23
2018-08-30T11:08:18.755Z,9.43
2018-08-30T11:08:51.801Z,9.00
2018-08-30T11:09:24.833Z,9.23
2018-08-30T11:09:57.956Z,9.07
2018-08-30T11:10:30.911Z,11.75
2018-08-30T11:11:03.978Z,9.07
2018-08-30T11:11:37.005Z,7.87
2018-08-30T11:12:10.609Z,8.52
2018-08-30T11:12:43.904Z,9.07
2018-08-30T11:13:16.954Z,9.85
2018-08-30T11:13:49.947Z,8.13
2018-08-30T11:14:22.988Z,8.27
2018-08-30T11:14:56.008Z,8.65
2018-08-30T11:15:29.040Z,8.45
2018-08-30T11:16:02.091Z,9.82
2018-08-30T11:16:35.114Z,7.97
2018-08-30T11:17:08.156Z,8.65
2018-08-30T11:17:41.204Z,9.52
2018-08-30T11:18:14.231Z,8.45
2018-08-30T11:18:47.302Z,9.07
2018-08-30T11:19:20.393Z,8.15
2018-08-30T11:19:53.361Z,8.70
2018-08-30T11:20:27.152Z,7.85
2018-08-30T11:21:00.180Z,8.50
2018-08-30T11:21:33.216Z,8.57
2018-08-30T11:22:06.505Z,9.93
2018-08-30T11:22:39.552Z,10.57
2018-08-30T11:23:13.354Z,9.20
2018-08-30T11:23:47.204Z,11.23
2018-08-30T11:24:20.975Z,10.18
2018-08-30T11:24:56.792Z,11.18
2018-08-30T11:25:29.864Z,10.57
2018-08-30T11:26:02.889Z,10.73
2018-08-30T11:26:35.914Z,10.70
2018-08-30T11:27:08.948Z,11.63
2018-08-30T11:27:42.014Z,10.07
2018-08-30T11:28:15.085Z,10.50
2018-08-30T11:28:48.108Z,9.98
2018-08-30T11:29:21.168Z,10.07
2018-08-30T11:29:54.192Z,9.55
2018-08-30T11:30:27.223Z,8.43
2018-08-30T11:31:00.240Z,9.18
2018-08-30T11:31:33.504Z,10.05
2018-08-30T11:32:06.535Z,8.80
2018-08-30T11:32:39.568Z,10.88
2018-08-30T11:33:12.629Z,8.98
2018-08-30T11:33:46.430Z,9.60
2018-08-30T11:34:19.476Z,9.65
2018-08-30T11:34:52.508Z,9.32
2018-08-30T11:35:25.549Z,10.15
2018-08-30T11:35:58.588Z,10.05
2018-08-30T11:36:31.659Z,8.95
2018-08-30T11:37:05.453Z,9.57
2018-08-30T11:37:39.192Z,7.97
2018-08-30T11:38:12.185Z,9.70
2018-08-30T11:38:45.195Z,9.18
2018-08-30T11:39:18.987Z,9.13
2018-08-30T11:39:52.011Z,8.05
2018-08-30T11:40:25.292Z,9.20
2018-08-30T11:40:58.307Z,9.00
2018-08-30T11:41:32.564Z,8.55
2018-08-30T11:42:05.760Z,8.02
2018-08-30T11:42:39.724Z,8.25
2018-08-30T11:50:02.028Z,7.80
2018-08-30T11:50:35.079Z,7.57
2018-08-30T11:51:08.182Z,8.23
2018-08-30T11:51:41.185Z,7.60
2018-08-30T11:52:16.790Z,8.60
2018-08-30T11:52:50.548Z,6.85
2018-08-30T11:53:23.599Z,9.02
2018-08-30T11:53:56.676Z,7.72
2018-08-30T11:54:30.478Z,7.93
2018-08-30T11:55:03.557Z,6.12
2018-08-30T11:55:37.525Z,8.80
2018-08-30T11:56:10.586Z,6.55
2018-08-30T11:56:43.660Z,6.45
2018-08-30T11:57:16.957Z,6.93
2018-08-30T11:57:50.234Z,7.68
2018-08-30T11:58:23.344Z,6.75
2018-08-30T11:58:56.421Z,6.18
2018-08-30T11:59:30.090Z,6.18
2018-08-30T12:00:03.945Z,6.87
2018-08-30T12:00:37.057Z,8.10
2018-08-30T12:01:10.224Z,7.30
2018-08-30T12:01:45.160Z,7.68
2018-08-30T12:02:18.360Z,6.97
2018-08-30T12:02:55.876Z,7.22
2018-08-30T12:03:28.916Z,8.05
2018-08-30T12:04:02.022Z,6.95
2018-08-30T12:04:35.310Z,5.95
2018-08-30T12:05:49.320Z,6.70
2018-08-30T12:06:22.345Z,6.43
2018-08-30T12:06:55.422Z,6.97
2018-08-30T12:07:29.307Z,6.30
2018-08-30T12:08:03.198Z,7.93
2018-08-30T12:08:36.245Z,6.15
2018-08-30T12:09:10.236Z,6.20
2018-08-30T12:09:43.497Z,5.97
2018-08-30T12:10:16.536Z,7.47
2018-08-30T12:10:49.580Z,6.30
2018-08-30T12:11:22.764Z,6.55
2018-08-30T12:11:57.786Z,7.07
2018-08-30T12:12:31.389Z,7.32
2018-08-30T12:13:04.414Z,6.90
2018-08-30T12:13:37.449Z,7.07
2018-08-30T12:14:10.507Z,7.32
2018-08-30T12:14:43.561Z,8.30
2018-08-30T12:15:17.169Z,7.05
2018-08-30T12:15:50.167Z,7.22
2018-08-30T12:16:23.372Z,6.60
2018-08-30T12:16:56.390Z,6.00
2018-08-30T12:17:30.449Z,6.78
2018-08-30T12:18:03.939Z,6.97
2018-08-30T12:18:37.000Z,7.55
2018-08-30T12:19:10.044Z,8.05
2018-08-30T12:19:43.067Z,7.07
2018-08-30T12:20:16.092Z,6.32
2018-08-30T12:20:50.023Z,7.03
2018-08-30T12:21:23.691Z,6.55
2018-08-30T12:21:57.479Z,6.20
2018-08-30T12:22:31.259Z,6.60
2018-08-30T12:23:05.070Z,5.90
2018-08-30T12:23:38.867Z,6.62
2018-08-30T12:24:11.896Z,10.60
2018-08-30T12:24:44.930Z,7.97
2018-08-30T12:25:17.956Z,5.82
2018-08-30T12:25:50.970Z,7.00
2018-08-30T12:26:24.000Z,6.65
2018-08-30T12:26:57.041Z,6.03
2018-08-30T12:27:30.071Z,6.62
2018-08-30T12:28:03.868Z,7.25
2018-08-30T12:28:37.790Z,7.53
2018-08-30T12:29:10.768Z,6.53
2018-08-30T12:29:43.733Z,6.97
2018-08-30T12:30:16.788Z,10.48
2018-08-30T12:30:50.593Z,6.95
2018-08-30T12:31:23.666Z,6.20
2018-08-30T12:31:56.667Z,6.07
2018-08-30T12:32:30.538Z,6.20
2018-08-30T12:33:04.232Z,6.12
2018-08-30T12:33:37.315Z,5.78
2018-08-30T12:34:10.390Z,6.37
2018-08-30T12:34:43.401Z,7.05
2018-08-30T12:35:16.557Z,5.47
2018-08-30T12:35:49.645Z,5.10
2018-08-30T12:36:22.503Z,6.05
2018-08-30T12:36:55.496Z,4.70
2018-08-30T12:37:28.513Z,5.60
2018-08-30T12:38:02.295Z,6.35
2018-08-30T12:38:36.091Z,5.70
2018-08-30T12:39:09.893Z,5.87
2018-08-30T12:39:43.032Z,7.80
2018-08-30T12:40:16.043Z,5.28
2018-08-30T12:40:49.000Z,6.40
2018-08-30T12:41:22.797Z,5.55
2018-08-30T12:41:56.622Z,6.50
2018-08-30T12:42:29.648Z,5.53
2018-08-30T12:43:02.974Z,5.78
2018-08-30T12:43:35.778Z,5.32
2018-08-30T12:44:08.794Z,5.35
2018-08-30T12:44:41.770Z,4.87
2018-08-30T16:22:17.983Z,2.78
2018-08-30T16:23:18.659Z,2.95
2018-08-30T16:23:58.780Z,3.97
2018-08-30T16:24:39.906Z,3.53
2018-08-30T16:25:19.296Z,3.03
2018-08-30T16:25:55.298Z,3.55
2018-08-30T16:27:27.403Z,3.15
2018-08-30T16:28:02.005Z,2.90
2018-08-30T16:28:38.783Z,3.53
2018-08-30T16:29:15.476Z,3.08
2018-08-30T16:29:50.807Z,3.67
2018-08-30T16:30:24.796Z,3.12
2018-08-30T16:31:04.595Z,3.47
2018-08-30T16:31:39.587Z,3.58
2018-08-30T16:32:16.676Z,2.50
2018-08-30T16:35:13.281Z,1.80
2018-08-30T16:36:29.816Z,6.28
2018-08-30T16:37:15.132Z,3.42
2018-08-30T16:37:51.105Z,4.18
2018-08-30T16:38:30.128Z,2.75
2018-08-30T16:39:04.329Z,2.97
2018-08-30T16:39:42.624Z,3.47
2018-08-30T16:40:17.929Z,2.90